Flight Track Log - Related Links

Times and Time Zones

All times are in EST time to prevent confusion due to time zone crossing. See the SWA1275 flight status page for this flight to view local times or setup timezone preferences in your user account.

Time Position Orientation Groundspeed Altitude Reporting Facility
EST Latitude Longitude Course Direction KTS MPH feet Rate Location/Type
Sat 07:19:08 AM 30.0092 -90.2453 19° North 148 170 600  Level Houston Center
Sat 07:19:14 AM 30.0156 -90.2428 19° North 154 177 1,100 2,000 Climbing Houston Center
Sat 07:19:23 AM 30.0183 -90.2419 15° North 158 182 1,100 2,000 Level Houston Center
Sat 07:20:23 AM 30.0714 -90.2319 North 197 227 3,400 2,200 Climbing Houston Center
Sat 07:21:23 AM 30.1319 -90.2542 342° North 242 278 5,500 2,678 Climbing Houston Center
Sat 07:22:24 AM 30.1847 -90.3197 313° West 265 305 8,800 2,727 Climbing Houston Center
Sat 07:23:24 AM 30.2394 -90.3900 312° West 285 328 11,000 2,430 Climbing Houston Center
Sat 07:24:25 AM 30.3075 -90.4742 313° West 348 400 13,700 2,727 Climbing Houston Center
Sat 07:25:25 AM 30.3767 -90.5589 313° West 361 415 16,500 2,628 Climbing Houston Center
Sat 07:26:26 AM 30.4494 -90.6517 312° West 383 441 19,000 2,508 Climbing Houston Center
Sat 07:27:27 AM 30.5242 -90.7481 312° West 397 457 21,600 2,430 Climbing Houston Center
Sat 07:28:27 AM 30.6000 -90.8461 312° West 407 468 23,900 2,132 Climbing Houston Center
Sat 07:29:28 AM 30.6789 -90.9492 312° West 423 487 25,900 2,033 Climbing Houston Center
Sat 07:30:28 AM 30.7589 -91.0542 312° West 432 497 28,000 2,231 Climbing Houston Center
Sat 07:31:29 AM 30.8531 -91.1778 312° West 436 502 30,400 2,459 Climbing Houston Center
Sat 07:32:30 AM 30.9314 -91.2806 312° West 431 496 33,000 1,785 Climbing Houston Center
Sat 07:33:30 AM 31.0058 -91.3789 311° West 413 475 34,000 793 Climbing Houston Center
Sat 07:34:31 AM 31.0797 -91.4783 311° West 408 470 34,600 1,091 Climbing Houston Center
Sat 07:35:31 AM 31.1550 -91.5764 312° West 407 468 36,200 1,537 Climbing Houston Center
Sat 07:36:32 AM 31.2286 -91.6725 312° West 402 463 37,700 893 Climbing Houston Center
Sat 07:37:32 AM 31.2992 -91.7689 311° West 395 455 38,000 149 Climbing Houston Center
Sat 07:38:33 AM 31.3717 -91.8636 312° West 393 452 38,000  Level Houston Center
Sat 07:39:34 AM 31.4433 -91.9583 312° West 391 450 38,000  Level Houston Center
Sat 07:40:34 AM 31.5139 -92.0539 311° West 387 445 38,000  Level Houston Center
Sat 07:41:35 AM 31.5842 -92.1494 311° West 386 444 38,000  Level Houston Center
Sat 07:42:36 AM 31.6522 -92.2425 311° West 383 441 38,000  Level Houston Center
Sat 07:43:36 AM 31.7236 -92.3367 312° West 384 442 38,000  Level Houston Center
Sat 07:44:37 AM 31.7936 -92.4319 311° West 387 445 38,000  Level Houston Center
Sat 07:45:38 AM 31.8647 -92.5278 311° West 389 448 38,000  Level Houston Center
Sat 07:46:38 AM 31.9342 -92.6222 311° West 385 443 38,000  Level Houston Center
Sat 07:47:39 AM 32.0197 -92.7375 311° West 389 448 38,000  Level Houston Center
Sat 07:48:39 AM 32.0867 -92.8297 311° West 389 448 38,000  Level Houston Center
Sat 07:49:13 AM 32.1300 -92.8872 312° West 388 447 38,000  Level Fort Worth Center
Sat 07:50:14 AM 32.2003 -92.9853 310° West 392 451 38,000  Level Fort Worth Center
Sat 07:51:15 AM 32.2708 -93.0817 311° West 390 449 38,000  Level Fort Worth Center
Sat 07:52:15 AM 32.3322 -93.1678 310° West 388 447 38,000  Level Fort Worth Center
Sat 07:53:16 AM 32.4042 -93.2658 311° West 394 453 38,000  Level Fort Worth Center
Sat 07:54:17 AM 32.4747 -93.3647 310° West 393 452 38,000  Level Fort Worth Center
Sat 07:55:17 AM 32.5461 -93.4625 311° West 392 451 38,000  Level Fort Worth Center
Sat 07:56:18 AM 32.6308 -93.5831 310° West 395 455 38,000  Level Fort Worth Center
Sat 07:57:19 AM 32.7028 -93.6825 311° West 396 456 38,000  Level Fort Worth Center
Sat 07:58:19 AM 32.7736 -93.7828 310° West 396 456 38,000 298 Level Fort Worth Center
Sat 07:59:20 AM 32.8461 -93.8836 311° West 399 459 38,600 787 Climbing Fort Worth Center
Sat 08:00:21 AM 32.9172 -93.9847 310° West 397 457 39,600 689 Climbing Fort Worth Center
Sat 08:01:22 AM 32.9872 -94.0861 309° West 395 455 40,000 198 Climbing Fort Worth Center
Sat 08:02:22 AM 33.0586 -94.1878 310° West 397 457 40,000  Level Fort Worth Center
Sat 08:03:23 AM 33.1297 -94.2881 310° West 394 453 40,000  Level Fort Worth Center
Sat 08:04:24 AM 33.2014 -94.3872 311° West 393 452 40,000  Level Fort Worth Center
Sat 08:05:24 AM 33.2703 -94.4872 310° West 388 447 40,000  Level Fort Worth Center
Sat 08:06:25 AM 33.3400 -94.5869 310° West 392 451 40,000  Level Fort Worth Center
Sat 08:07:26 AM 33.4100 -94.6861 310° West 392 451 40,000  Level Fort Worth Center
Sat 08:08:27 AM 33.4792 -94.7858 310° West 392 451 40,000  Level Fort Worth Center
Sat 08:09:27 AM 33.5478 -94.8861 309° West 391 450 40,000  Level Fort Worth Center
Sat 08:10:28 AM 33.6161 -94.9850 310° West 388 447 40,000  Level Fort Worth Center
Sat 08:11:29 AM 33.6853 -95.0850 310° West 390 449 40,000  Level Fort Worth Center
Sat 08:12:30 AM 33.7531 -95.1844 309° West 387 445 40,000  Level Fort Worth Center
Sat 08:13:30 AM 33.8203 -95.2850 309° West 388 447 40,000  Level Fort Worth Center
Sat 08:14:31 AM 33.8892 -95.3844 310° West 388 447 40,000  Level Fort Worth Center
Sat 08:15:32 AM 33.9569 -95.4836 310° West 385 443 40,000  Level Fort Worth Center
Sat 08:16:32 AM 34.0314 -95.5922 310° West 388 447 40,000  Level Fort Worth Center
Sat 08:17:33 AM 34.0992 -95.6944 309° West 382 440 40,000  Level Fort Worth Center
Sat 08:18:34 AM 34.1667 -95.7925 310° West 380 437 40,000  Level Fort Worth Center
Sat 08:19:35 AM 34.2322 -95.8908 309° West 375 432 40,000  Level Fort Worth Center
Sat 08:20:35 AM 34.2978 -95.9867 310° West 371 427 40,000  Level Fort Worth Center
Sat 08:21:36 AM 34.3636 -96.0861 309° West 376 433 40,000  Level Fort Worth Center
Sat 08:22:37 AM 34.4281 -96.1850 308° West 367 422 40,000  Level Fort Worth Center
Sat 08:23:38 AM 34.4942 -96.2814 310° West 369 425 40,000  Level Fort Worth Center
Sat 08:24:38 AM 34.5608 -96.3808 309° West 378 435 40,000  Level Fort Worth Center
Sat 08:25:39 AM 34.6267 -96.4814 309° West 380 437 40,000  Level Fort Worth Center
Sat 08:26:40 AM 34.6925 -96.5819 309° West 381 438 40,000  Level Fort Worth Center
Sat 08:27:40 AM 34.7592 -96.6831 309° West 383 441 40,000  Level Fort Worth Center
Sat 08:28:41 AM 34.8383 -96.8044 308° West 382 440 40,000  Level Fort Worth Center
Sat 08:29:42 AM 34.9050 -96.9083 308° West 389 448 40,000  Level Fort Worth Center
Sat 08:30:43 AM 34.9706 -97.0100 308° West 386 444 40,000  Level Fort Worth Center
Sat 08:31:43 AM 35.0328 -97.1153 306° West 382 440 40,000  Level Fort Worth Center
Sat 08:32:44 AM 35.0956 -97.2208 306° West 383 441 40,000  Level Fort Worth Center
Sat 08:33:45 AM 35.1586 -97.3269 306° West 383 441 40,000  Level Fort Worth Center
Sat 08:34:46 AM 35.2222 -97.4358 306° West 388 447 40,000  Level Fort Worth Center
Sat 08:35:47 AM 35.2869 -97.5442 306° West 389 448 40,000  Level Fort Worth Center
Sat 08:36:47 AM 35.3514 -97.6511 306° West 387 445 40,000  Level Fort Worth Center
Sat 08:37:48 AM 35.4147 -97.7581 306° West 385 443 40,000  Level Fort Worth Center
Sat 08:38:49 AM 35.4775 -97.8636 306° West 383 441 40,000  Level Fort Worth Center
Sat 08:39:50 AM 35.5397 -97.9697 306° West 382 440 40,000  Level Fort Worth Center
Sat 08:40:51 AM 35.6011 -98.0756 306° West 381 438 40,000  Level Fort Worth Center
Sat 08:41:52 AM 35.6625 -98.1797 306° West 375 432 40,000  Level Fort Worth Center
Sat 08:42:53 AM 35.7217 -98.2800 306° West 376 433 40,000  Level Fort Worth Center
Sat 08:43:54 AM 35.7814 -98.3844 305° West 372 428 40,000  Level Fort Worth Center
Sat 08:44:55 AM 35.8411 -98.4878 306° West 370 426 40,000  Level Fort Worth Center
Sat 08:45:56 AM 35.8997 -98.5906 305° West 367 422 40,000  Level Fort Worth Center
Sat 08:46:57 AM 35.9594 -98.6944 305° West 370 426 40,000  Level Fort Worth Center
Sat 08:47:58 AM 36.0311 -98.8189 305° West 372 428 40,000  Level Fort Worth Center
Sat 08:48:59 AM 36.0897 -98.9233 305° West 372 428 40,000  Level Fort Worth Center
Sat 08:50:00 AM 36.1481 -99.0261 305° West 370 426 40,000  Level Fort Worth Center
Sat 08:51:01 AM 36.2069 -99.1294 305° West 373 429 40,000  Level Fort Worth Center
Sat 08:52:02 AM 36.2647 -99.2342 304° West 372 428 40,000  Level Fort Worth Center
Sat 08:53:03 AM 36.3244 -99.3392 305° West 372 428 40,000  Level Fort Worth Center
Sat 08:54:04 AM 36.3828 -99.4453 304° West 373 429 40,000  Level Fort Worth Center
Sat 08:55:05 AM 36.4417 -99.5503 305° West 370 426 40,000  Level Fort Worth Center
Sat 08:56:06 AM 36.5025 -99.6589 305° West 380 437 40,000  Level Fort Worth Center
Sat 08:57:08 AM 36.5744 -99.7869 305° West 377 434 40,000  Level Fort Worth Center
Sat 08:58:09 AM 36.6328 -99.8947 304° West 376 433 40,000  Level Fort Worth Center
Sat 08:59:30 AM 36.7031 -100.0228 304° West 372 428 40,000  Level Kansas City Center
Sat 09:00:31 AM 36.7633 -100.1322 305° West 370 426 40,000  Level Kansas City Center
Sat 09:01:32 AM 36.8264 -100.2500 304° West 366 421 40,000  Level Kansas City Center
Sat 09:02:33 AM 36.8822 -100.3494 305° West 365 420 40,000  Level Kansas City Center
Sat 09:03:34 AM 36.9367 -100.4506 304° West 365 420 40,000  Level Kansas City Center
Sat 09:04:34 AM 37.0000 -100.5675 304° West 364 419 40,000  Level Kansas City Center
Sat 09:05:35 AM 37.0561 -100.6678 305° West 365 420 40,000  Level Kansas City Center
Sat 09:06:36 AM 37.1200 -100.7858 304° West 366 421 40,000  Level Kansas City Center
Sat 09:07:37 AM 37.1756 -100.8869 305° West 367 422 40,000  Level Kansas City Center
Sat 09:08:38 AM 37.2297 -100.9911 303° West 368 423 40,000  Level Kansas City Center
Sat 09:09:39 AM 37.2872 -101.0972 304° West 377 434 40,000  Level Kansas City Center
Sat 09:10:40 AM 37.3519 -101.2200 304° West 377 434 40,000  Level Kansas City Center
Sat 09:11:41 AM 37.4064 -101.3239 303° West 372 428 40,000  Level Kansas City Center
Sat 09:12:42 AM 37.4622 -101.4269 304° West 371 427 40,000  Level Kansas City Center
Sat 09:13:44 AM 37.5261 -101.5483 304° West 370 426 40,000  Level Kansas City Center
Sat 09:14:45 AM 37.5803 -101.6511 304° West 369 425 40,000  Level Kansas City Center
Sat 09:15:46 AM 37.6339 -101.7533 304° West 366 421 40,000  Level Kansas City Center
Sat 09:16:47 AM 37.6964 -101.8731 303° West 365 420 40,000  Level Kansas City Center
Sat 09:17:48 AM 37.7500 -101.9764 303° West 367 422 40,000  Level Kansas City Center
Sat 09:18:49 AM 37.8139 -102.0992 303° West 371 427 40,000  Level Kansas City Center
Sat 09:19:34 AM 37.8536 -102.1672 306° West 375 432 40,000  Level Denver Center
Sat 09:20:35 AM 37.9394 -102.2794 314° West 392 451 40,000  Level Denver Center
Sat 09:21:35 AM 38.0108 -102.3767 313° West 394 453 40,000 50 Level Denver Center
Sat 09:22:36 AM 38.0819 -102.4736 313° West 392 451 40,100  Climbing Denver Center
Sat 09:23:36 AM 38.1631 -102.5861 313° West 387 445 40,000  Descending Denver Center
Sat 09:24:37 AM 38.2339 -102.6828 313° West 389 448 40,100  Climbing Denver Center
Sat 09:25:38 AM 38.3047 -102.7792 313° West 390 449 40,000 -50 Descending Denver Center
Sat 09:26:38 AM 38.3744 -102.8761 313° West 388 447 40,000  Level Denver Center
Sat 09:27:39 AM 38.4567 -102.9900 313° West 390 449 40,000 50 Level Denver Center
Sat 09:28:39 AM 38.5269 -103.0875 313° West 389 448 40,100 -645 Climbing Denver Center
Sat 09:29:40 AM 38.5953 -103.1825 313° West 393 452 38,700 -1,918 Descending Denver Center
Sat 09:30:41 AM 38.6683 -103.2850 312° West 392 451 36,200 -2,281 Descending Denver Center
Sat 09:31:41 AM 38.7589 -103.4089 313° West 396 456 34,100 -1,091 Descending Denver Center
Sat 09:32:42 AM 38.8239 -103.5047 311° West 402 463 34,000 -1,377 Descending Denver Center
Sat 09:33:43 AM 38.9072 -103.6222 312° West 401 461 31,300 -2,430 Descending Denver Center
Sat 09:34:43 AM 38.9803 -103.7258 312° West 396 456 29,100 -2,182 Descending Denver Center
Sat 09:35:44 AM 39.0500 -103.8239 312° West 379 436 26,900 -2,066 Descending Denver Center
Sat 09:36:45 AM 39.1167 -103.9189 312° West 364 419 24,900 -2,033 Descending Denver Center
Sat 09:37:45 AM 39.1839 -104.0156 312° West 363 418 22,800 -1,686 Descending Denver Center
Sat 09:38:46 AM 39.2631 -104.1258 313° West 401 461 21,500 -1,525 Descending Denver Center
Sat 09:39:47 AM 39.3483 -104.1972 327° Northwest 360 414 19,700 -1,721 Descending Denver Center
Sat 09:40:48 AM 39.4297 -104.2639 328° Northwest 347 399 18,000 -1,289 Descending Denver Center
Sat 09:41:48 AM 39.5081 -104.3278 328° Northwest 331 381 17,100 -595 Descending Denver Center
Sat 09:42:49 AM 39.5803 -104.3872 328° Northwest 309 356 16,800 -934 Descending Denver Center
Sat 09:43:50 AM 39.6514 -104.4467 327° Northwest 285 328 15,200 -1,488 Descending Denver Center
Sat 09:44:50 AM 39.7197 -104.5011 329° Northwest 287 330 13,800 -1,438 Descending Denver Center
Sat 09:45:51 AM 39.7978 -104.5244 347° North 303 349 12,300 -1,230 Descending Denver Center
Sat 09:46:52 AM 39.8814 -104.5214 North 304 350 11,300 -738 Descending Denver Center
Sat 09:47:53 AM 39.9581 -104.5214 360° North 280 322 10,800 -843 Descending Denver Center
Sat 09:48:53 AM 40.0197 -104.5511 340° North 238 274 9,600 -1,486 Descending Denver Center
Sat 09:49:42 AM 40.0167 -104.6167 267° West 234 269 8,100 -1,046 Descending Denver TRACON
Sat 09:50:42 AM 40.0000 -104.6833 252° West 202 232 7,700 -800 Descending Denver TRACON
Sat 09:51:42 AM 39.9500 -104.6833 180° South 159 183 6,500 -1,000 Descending Denver TRACON
Sat 09:52:36 AM 39.9167 -104.6833 180° South 141 162 5,800 -778 Descending Denver TRACON
Sat 09:54:00 AM 39.8617 -104.6732 North  Level Estimated
Sat 10:01:00 AM 39.8617 -104.6732 North  Level Estimated
Sat 10:02:00 AM 39.8617 -104.6732 North  Level Estimated
Sat 10:03:00 AM 39.8617 -104.6732 North  Level Estimated
Sat 10:04:00 AM 39.8617 -104.6732 North  Level Estimated

Login

Don't have an account? Register now (free) for customized features, flight alerts, and more!